Time;durP1;ratioP1;P1;durP2;ratioP2;P2;SDS_P1;SDS_P2;PMS_P1;PMS_P2;Temp;Humidity;BMP_temperature;BMP_pressure;BME280_temperature;BME280_humidity;BME280_pressure;Samples;Min_cycle;Max_cycle;Signal;HPM_P1;HPM_P2
2021/12/07 00:02:21;;;;;;;0.10;0.10;;;1.90;99.90;;;1.65;100.00;99770.84;4964365;28;20222;-81
2021/12/07 00:04:49;;;;;;;0.10;0.10;;;;;;;1.62;100.00;99779.44;4996149;28;20231;-81
2021/12/07 00:07:19;;;;;;;0.10;0.10;;;1.90;99.90;;;1.62;100.00;99789.88;4979252;28;20208;-81
2021/12/07 00:09:49;;;;;;;0.10;0.10;;;1.90;99.90;;;1.64;100.00;99789.91;4980216;28;20214;-80
2021/12/07 00:12:18;;;;;;;0.10;0.10;;;;;;;1.60;100.00;99779.38;4995711;28;20227;-82
2021/12/07 00:14:47;;;;;;;0.10;0.10;;;;;;;1.59;100.00;99782.81;4980572;28;20235;-81
2021/12/07 00:17:15;;;;;;;0.10;0.10;;;;;;;1.58;100.00;99778.44;4960635;28;20292;-82
2021/12/07 00:19:44;;;;;;;0.10;0.10;;;1.80;99.90;;;1.59;100.00;99787.16;4995203;28;20219;-81
2021/12/07 00:22:12;;;;;;;0.10;0.10;;;1.80;99.90;;;1.58;100.00;99788.00;4980183;28;20208;-82
2021/12/07 00:24:41;;;;;;;0.10;0.10;;;1.80;99.90;;;1.58;100.00;99783.66;4962286;28;20505;-80
2021/12/07 00:27:11;;;;;;;0.10;0.10;;;1.90;99.90;;;1.58;100.00;99788.00;4960497;28;20212;-82
2021/12/07 00:29:39;;;;;;;0.30;0.30;;;1.80;99.90;;;1.54;100.00;99779.19;4964776;28;20200;-82
2021/12/07 00:37:55;;;;;;;0.32;0.32;;;1.80;99.90;;;1.59;100.00;99782.81;4966512;28;20212;-82
2021/12/07 00:40:24;;;;;;;0.10;0.10;;;1.80;99.90;;;1.60;100.00;99779.38;4981047;28;20219;-82
2021/12/07 00:42:53;;;;;;;0.10;0.10;;;;;;;1.60;100.00;99786.31;5008040;28;20215;-82
2021/12/07 00:45:22;;;;;;;0.10;0.10;;;;;;;1.60;100.00;99789.81;4988698;28;20232;-82
2021/12/07 00:47:53;;;;;;;0.10;0.10;;;1.80;99.90;;;1.64;100.00;99784.72;4972806;28;20210;-82
2021/12/07 00:50:24;;;;;;;0.30;0.30;;;1.80;99.90;;;1.64;100.00;99777.78;4992566;28;20208;-82
2021/12/07 00:53:11;;;;;;;0.10;0.10;;;1.90;99.90;;;1.66;100.00;99773.50;4989480;28;20223;-81
2021/12/07 00:55:50;;;;;;;0.10;0.10;;;2.10;99.90;;;1.66;100.00;99770.00;4952947;28;20224;-81
2021/12/07 00:58:23;;;;;;;0.10;0.10;;;1.90;99.90;;;1.64;100.00;99777.78;4958465;28;20204;-82
2021/12/07 01:01:02;;;;;;;0.10;0.10;;;2.20;99.90;;;1.64;100.00;99776.88;4949074;28;20219;-82
2021/12/07 01:03:51;;;;;;;0.10;0.10;;;1.90;99.90;;;1.62;100.00;99766.41;5005421;28;20222;-82
2021/12/07 01:08:55;;;;;;;0.10;0.10;;;1.90;99.90;;;1.60;100.00;99784.59;4992764;28;20205;-81
2021/12/07 01:25:36;;;;;;;0.10;0.10;;;1.90;99.90;;;1.73;100.00;99800.66;4982453;28;20234;-82
2021/12/07 01:28:15;;;;;;;0.20;0.20;;;1.90;99.90;;;1.73;100.00;99805.88;4983420;28;20307;-82
2021/12/07 01:36:19;;;;;;;0.10;0.10;;;2.20;99.90;;;1.82;100.00;99827.03;5002498;28;20231;-82
2021/12/07 01:44:21;;;;;;;0.20;0.20;;;2.10;99.90;;;1.88;100.00;99825.53;4977738;28;20315;-82
2021/12/07 02:00:38;;;;;;;0.20;0.20;;;2.20;99.90;;;1.97;100.00;99865.78;4998761;28;20219;-82
2021/12/07 02:03:06;;;;;;;0.10;0.10;;;2.20;99.90;;;2.00;100.00;99868.50;4983886;28;20207;-81
2021/12/07 02:05:36;;;;;;;0.10;0.10;;;2.50;99.90;;;2.02;100.00;99872.03;4978227;28;20245;-80
2021/12/07 02:08:05;;;;;;;0.65;0.65;;;2.20;99.90;;;2.03;100.00;99877.31;4989911;28;20208;-82
2021/12/07 02:10:33;;;;;;;0.10;0.10;;;2.20;99.90;;;2.05;100.00;99872.13;4981361;28;20208;-81
2021/12/07 02:13:20;;;;;;;0.10;0.10;;;2.50;99.90;;;2.07;100.00;99876.56;4981007;28;20204;-82
2021/12/07 02:15:50;;;;;;;0.20;0.20;;;2.30;99.90;;;2.06;100.00;99872.19;4985215;28;20234;-82
2021/12/07 02:18:39;;;;;;;0.10;0.10;;;2.70;99.90;;;2.07;100.00;99878.28;4994539;28;20207;-82
2021/12/07 02:21:14;;;;;;;0.10;0.10;;;2.40;99.90;;;2.09;100.00;99880.13;4978886;28;20204;-81
2021/12/07 02:23:42;;;;;;;0.10;0.10;;;2.30;99.90;;;2.16;100.00;99881.22;4973120;28;20304;-82
2021/12/07 02:26:11;;;;;;;0.10;0.10;;;;;;;2.22;100.00;99884.03;4972741;28;20219;-81
2021/12/07 02:28:40;;;;;;;0.10;0.10;;;;;;;2.27;100.00;99892.00;4977757;28;20215;-82
2021/12/07 02:31:10;;;;;;;0.10;0.10;;;2.50;99.90;;;2.29;100.00;99890.31;4992207;28;20219;-82
2021/12/07 02:33:39;;;;;;;0.10;0.10;;;2.50;99.90;;;2.25;100.00;99887.63;5011835;28;20220;-82
2021/12/07 02:36:08;;;;;;;0.10;0.10;;;2.50;99.90;;;2.25;100.00;99886.72;4961610;28;20227;-82
2021/12/07 02:38:37;;;;;;;0.10;0.10;;;2.50;99.90;;;2.24;100.00;99875.41;4963654;28;20209;-82
2021/12/07 02:41:06;;;;;;;0.10;0.10;;;2.80;99.90;;;2.23;100.00;99877.97;4966894;28;20205;-82
2021/12/07 02:43:35;;;;;;;0.10;0.10;;;2.90;99.90;;;2.22;100.00;99882.31;4980312;28;20213;-80
2021/12/07 02:46:05;;;;;;;0.10;0.10;;;2.50;99.90;;;2.20;100.00;99873.53;4996453;28;20237;-80
2021/12/07 02:48:33;;;;;;;0.10;0.10;;;2.40;99.90;;;2.19;100.00;99871.75;4957115;28;20224;-80
2021/12/07 02:51:03;;;;;;;0.10;0.10;;;2.60;99.90;;;2.16;100.00;99869.06;4966834;28;20219;-82
2021/12/07 02:53:34;;;;;;;0.10;0.10;;;2.40;99.90;;;2.15;100.00;99856.84;4964345;28;20208;-82
2021/12/07 02:56:07;;;;;;;0.10;0.10;;;2.80;99.90;;;2.15;100.00;99856.84;4983070;28;20698;-83
2021/12/07 02:58:42;;;;;;;0.10;0.10;;;;;;;2.17;100.00;99851.69;4993584;28;20208;-82
2021/12/07 03:01:20;;;;;;;0.10;0.10;;;2.40;99.90;;;2.17;100.00;99849.06;4964511;28;20215;-81
2021/12/07 03:04:01;;;;;;;0.10;0.10;;;;;;;2.10;100.00;99840.16;4979871;28;20215;-80
2021/12/07 03:07:03;;;;;;;0.10;0.10;;;2.40;99.90;;;2.02;100.00;99846.84;4981377;28;20702;-82
2021/12/07 03:26:26;;;;;;;0.20;0.20;;;2.30;99.90;;;2.03;100.00;99868.59;5005191;28;20208;-81
2021/12/07 03:29:05;;;;;;;0.10;0.10;;;2.60;99.90;;;1.97;100.00;99860.56;5007249;28;20582;-82
2021/12/07 03:31:34;;;;;;;0.10;0.10;;;2.20;99.90;;;1.95;100.00;99876.16;4977084;28;20214;-82
2021/12/07 03:34:03;;;;;;;0.17;0.17;;;2.20;99.90;;;1.95;100.00;99880.47;4977962;28;20211;-82
2021/12/07 03:36:34;;;;;;;0.10;0.10;;;;;;;1.93;100.00;99888.25;4992287;28;20243;-81
2021/12/07 03:39:07;;;;;;;0.10;0.10;;;2.20;99.90;;;1.91;100.00;99885.59;4992101;28;20212;-82
2021/12/07 03:41:36;;;;;;;0.10;0.10;;;2.20;99.90;;;1.90;100.00;99891.63;4976810;28;20216;-81
2021/12/07 03:44:05;;;;;;;0.20;0.20;;;2.10;99.90;;;1.85;100.00;99892.31;4960922;28;20208;-82
2021/12/07 03:46:35;;;;;;;0.10;0.10;;;2.10;99.90;;;1.87;100.00;99904.56;4963830;28;20204;-82
2021/12/07 03:49:03;;;;;;;0.20;0.20;;;2.10;99.90;;;1.87;100.00;99896.75;4991963;28;20203;-81
2021/12/07 03:51:31;;;;;;;0.20;0.20;;;2.40;99.90;;;1.92;100.00;99917.78;4991155;28;20204;-81
2021/12/07 03:54:00;;;;;;;0.10;0.10;;;2.30;99.90;;;1.93;100.00;99927.38;4959820;28;20207;-80
2021/12/07 03:56:28;;;;;;;0.10;0.10;;;2.30;99.90;;;1.93;100.00;99924.75;4990087;28;20228;-82
2021/12/07 03:58:57;;;;;;;0.10;0.10;;;2.20;99.90;;;1.95;100.00;99937.84;4989033;28;20215;-82
2021/12/07 04:01:27;;;;;;;0.10;0.10;;;2.20;99.90;;;1.98;100.00;99944.06;4990373;28;20219;-81
2021/12/07 04:04:01;;;;;;;0.32;0.32;;;2.30;99.90;;;2.02;100.00;99958.97;4988927;28;20204;-82
2021/12/07 04:06:29;;;;;;;0.10;0.10;;;2.70;99.90;;;2.03;100.00;99963.34;4988533;28;20212;-82
2021/12/07 04:08:59;;;;;;;0.10;0.10;;;2.30;99.90;;;2.09;100.00;99966.19;4953243;28;20219;-79
2021/12/07 04:11:27;;;;;;;0.17;0.17;;;2.40;99.90;;;2.14;100.00;99982.88;4975794;28;20228;-82
2021/12/07 04:13:56;;;;;;;0.10;0.10;;;;;;;2.14;100.00;99982.00;4974100;28;20203;-82
2021/12/07 04:16:27;;;;;;;0.10;0.10;;;2.40;99.90;;;2.15;100.00;99979.44;4971772;28;20227;-82
2021/12/07 04:18:56;;;;;;;0.10;0.10;;;2.60;99.90;;;2.17;100.00;99983.00;4973423;28;20216;-81
2021/12/07 04:21:25;;;;;;;0.10;0.10;;;2.50;99.90;;;2.28;100.00;99996.41;4967439;28;20223;-79
2021/12/07 04:23:53;;;;;;;0.10;0.10;;;2.70;99.90;;;2.33;100.00;100007.00;4980405;28;20211;-82
2021/12/07 04:26:23;;;;;;;0.10;0.10;;;2.80;99.90;;;2.43;100.00;100007.38;4974464;28;20216;-82
2021/12/07 04:28:51;;;;;;;0.10;0.10;;;2.90;99.90;;;2.48;100.00;100004.94;4971766;28;20208;-81
2021/12/07 04:31:20;;;;;;;0.10;0.10;;;2.80;99.90;;;2.57;100.00;100008.72;4964022;28;20212;-80
2021/12/07 04:33:48;;;;;;;0.10;0.10;;;2.80;99.90;;;2.60;100.00;100014.91;4989784;28;20204;-82
2021/12/07 04:36:17;;;;;;;0.10;0.10;;;3.00;99.90;;;2.57;100.00;100013.06;4967826;28;20262;-81
2021/12/07 04:38:45;;;;;;;0.10;0.10;;;;;;;2.55;100.00;100028.69;5012465;28;20212;-82
2021/12/07 04:41:14;;;;;;;0.10;0.10;;;2.90;99.90;;;2.57;100.00;100032.22;4979622;28;20216;-80
2021/12/07 04:43:42;;;;;;;0.10;0.10;;;2.90;99.90;;;2.57;100.00;100026.13;4978744;28;20223;-82
2021/12/07 04:46:33;;;;;;;0.10;0.10;;;2.90;99.90;;;2.54;100.00;100019.06;5000687;28;20234;-82
2021/12/07 04:49:53;;;;;;;0.10;0.10;;;2.90;99.90;;;2.56;100.00;100019.13;4989301;28;20211;-82
2021/12/07 04:57:50;;;;;;;0.20;0.20;;;2.80;99.90;;;2.53;100.00;100019.03;4997411;28;20211;-82
2021/12/07 05:00:25;;;;;;;0.10;0.10;;;3.10;99.90;;;2.46;100.00;100017.91;4987018;28;20218;-82
2021/12/07 05:03:04;;;;;;;0.10;0.10;;;;;;;2.43;100.00;100009.09;4987825;28;20203;-82
2021/12/07 05:05:39;;;;;;;0.10;0.10;;;2.70;99.90;;;2.41;100.00;100011.66;4969489;28;20232;-82
2021/12/07 05:08:11;;;;;;;0.10;0.10;;;2.90;99.90;;;2.37;100.00;100006.28;4997882;28;20200;-81
2021/12/07 05:18:36;;;;;;;0.10;0.10;;;3.00;99.90;;;2.31;100.00;99993.91;5003744;28;20204;-82
2021/12/07 05:23:55;;;;;;;0.10;0.10;;;2.90;99.90;;;2.23;100.00;100001.47;4978117;28;20208;-81
2021/12/07 05:40:33;;;;;;;0.10;0.10;;;2.60;99.90;;;2.10;100.00;100021.84;4984120;28;20226;-82
2021/12/07 05:43:08;;;;;;;0.10;0.10;;;2.40;99.90;;;2.07;100.00;100030.44;4969928;28;20212;-82
2021/12/07 05:45:38;;;;;;;0.10;0.10;;;2.40;99.90;;;2.06;100.00;100030.38;4983241;28;20227;-81
2021/12/07 05:48:08;;;;;;;0.10;0.10;;;2.50;99.90;;;2.02;100.00;100033.72;4984005;28;20204;-82
2021/12/07 05:50:39;;;;;;;0.10;0.10;;;2.30;99.90;;;1.99;100.00;100033.59;5015807;28;20212;-81
2021/12/07 05:53:10;;;;;;;0.10;0.10;;;2.60;99.90;;;2.04;100.00;100050.31;4984939;28;20204;-82
2021/12/07 05:55:40;;;;;;;0.10;0.10;;;2.50;99.90;;;2.01;100.00;100048.47;4983479;28;20250;-82
2021/12/07 05:58:15;;;;;;;0.20;0.20;;;2.20;99.90;;;2.03;100.00;100057.25;4987316;28;20208;-82
2021/12/07 06:00:45;;;;;;;0.10;0.10;;;2.70;99.90;;;1.98;100.00;100042.25;5000870;28;20242;-82
2021/12/07 06:03:15;;;;;;;0.10;0.10;;;2.50;99.90;;;1.98;100.00;100047.47;5015949;28;20677;-83
2021/12/07 06:05:44;;;;;;;0.10;0.10;;;2.30;99.90;;;1.98;100.00;100050.97;4943462;28;20225;-82
2021/12/07 06:08:12;;;;;;;0.10;0.10;;;2.30;99.90;;;1.99;100.00;100064.91;4969780;28;20211;-80
2021/12/07 06:10:40;;;;;;;0.20;0.20;;;2.40;99.90;;;2.06;100.00;100083.44;4994111;28;20203;-82
2021/12/07 06:13:09;;;;;;;0.10;0.10;;;2.30;99.90;;;2.11;100.00;100089.72;4969004;28;20200;-82
2021/12/07 06:15:39;;;;;;;0.10;0.10;;;2.40;99.90;;;2.11;100.00;100092.31;4982076;28;20227;-81
2021/12/07 06:18:07;;;;;;;0.10;0.10;;;2.40;99.90;;;2.06;100.00;100083.44;4987958;28;20218;-82
2021/12/07 06:20:36;;;;;;;0.10;0.10;;;;;;;2.03;100.00;100085.94;4981178;28;20212;-82
2021/12/07 06:23:16;;;;;;;0.10;0.10;;;2.30;99.90;;;2.05;100.00;100092.09;4980594;28;20210;-81
2021/12/07 06:25:47;;;;;;;0.10;0.10;;;2.30;99.90;;;2.04;100.00;100092.94;4981179;28;20231;-82
2021/12/07 06:28:17;;;;;;;0.10;0.10;;;2.70;99.90;;;2.12;100.00;100099.31;4961136;28;20208;-82
2021/12/07 06:30:47;;;;;;;0.10;0.10;;;2.60;99.90;;;2.13;100.00;100101.09;4996125;28;20282;-82
2021/12/07 06:33:19;;;;;;;0.10;0.10;;;2.80;99.90;;;2.29;100.00;100112.97;4980055;28;20208;-81
2021/12/07 06:35:51;;;;;;;0.10;0.10;;;2.70;99.90;;;2.37;100.00;100121.09;4959918;28;20231;-82
2021/12/07 06:38:19;;;;;;;0.15;0.15;;;2.70;99.90;;;2.41;100.00;100122.97;4973260;28;20195;-82
2021/12/07 06:40:48;;;;;;;0.10;0.10;;;2.70;99.90;;;2.48;100.00;100138.03;4983333;28;20205;-83
2021/12/07 06:43:16;;;;;;;0.10;0.10;;;2.70;99.90;;;2.51;100.00;100138.13;4970233;28;20208;-81
2021/12/07 06:45:45;;;;;;;0.10;0.10;;;3.40;99.90;;;2.47;100.00;100131.03;4985073;28;20220;-81
2021/12/07 06:48:13;;;;;;;0.10;0.10;;;2.80;99.90;;;2.55;100.00;100137.41;4963366;28;20204;-82
2021/12/07 06:50:42;;;;;;;0.10;0.10;;;;;;;2.55;100.00;100143.53;4998438;28;20204;-82
2021/12/07 06:53:10;;;;;;;0.10;0.10;;;2.80;99.90;;;2.57;100.00;100148.81;4981937;28;20215;-80
2021/12/07 06:55:38;;;;;;;0.10;0.10;;;2.90;99.90;;;2.61;100.00;100144.63;4946688;28;20228;-82
2021/12/07 06:58:06;;;;;;;0.10;0.10;;;2.90;99.90;;;2.64;100.00;100148.22;4964795;28;20234;-82
2021/12/07 07:00:35;;;;;;;0.10;0.10;;;2.90;99.90;;;2.66;100.00;100150.88;4983876;28;20207;-82
2021/12/07 07:03:05;;;;;;;0.10;0.10;;;;;;;2.66;100.00;100143.94;4967977;28;20200;-83
2021/12/07 07:05:35;;;;;;;0.10;0.10;;;3.00;99.90;;;2.64;100.00;100144.72;4967378;28;20235;-83
2021/12/07 07:08:04;;;;;;;0.10;0.10;;;2.90;99.90;;;2.61;100.00;100150.72;4967717;28;20215;-82
2021/12/07 07:10:32;;;;;;;0.10;0.10;;;3.10;99.90;;;2.63;100.00;100156.88;5005051;28;20204;-83
2021/12/07 07:13:00;;;;;;;0.10;0.10;;;2.90;99.90;;;2.66;100.00;100157.00;4965058;28;20196;-82
2021/12/07 07:15:29;;;;;;;0.10;0.10;;;3.10;99.90;;;2.68;100.00;100160.56;4995395;28;20229;-82
2021/12/07 07:17:57;;;;;;;0.10;0.10;;;3.00;99.90;;;2.64;100.00;100160.38;4990305;28;20235;-82
2021/12/07 07:20:25;;;;;;;0.10;0.10;;;3.00;99.90;;;2.68;100.00;100162.28;4994708;28;20227;-82
2021/12/07 07:22:54;;;;;;;6.93;1.25;;;3.10;99.90;;;2.70;100.00;100168.44;4999741;28;20200;-82
2021/12/07 07:25:27;;;;;;;0.10;0.10;;;3.10;99.90;;;2.71;100.00;100172.81;4993636;28;20231;-82
2021/12/07 07:27:55;;;;;;;0.10;0.10;;;3.00;99.90;;;2.71;100.00;100165.88;4984364;28;20207;-82
2021/12/07 07:30:24;;;;;;;0.10;0.10;;;3.00;99.90;;;2.66;100.00;100167.44;4982261;28;20660;-81
2021/12/07 07:32:53;;;;;;;0.10;0.10;;;3.30;99.90;;;2.62;100.00;100175.09;4998129;28;20205;-83
2021/12/07 07:35:25;;;;;;;0.10;0.10;;;;;;;2.65;100.00;100170.88;4980964;28;20232;-82
2021/12/07 07:37:54;;;;;;;0.10;0.10;;;;;;;2.66;100.00;100185.72;4970456;28;20219;-82
2021/12/07 07:40:23;;;;;;;0.10;0.10;;;;;;;2.66;100.00;100185.72;4999491;28;20215;-82
2021/12/07 07:42:52;;;;;;;0.10;0.10;;;;;;;2.63;100.00;100188.22;4968606;28;20238;-82
2021/12/07 07:45:58;;;;;;;0.10;0.10;;;2.90;99.90;;;2.63;100.00;100198.66;4975179;28;20239;-82
2021/12/07 07:48:27;;;;;;;0.10;0.10;;;;;;;2.68;100.00;100193.59;4958999;28;20205;-84
2021/12/07 07:50:55;;;;;;;0.10;0.10;;;2.90;99.90;;;2.73;100.00;100207.72;4977672;28;20208;-82
2021/12/07 07:53:24;;;;;;;0.10;0.10;;;;;;;2.77;100.00;100213.09;4967599;28;20211;-83
2021/12/07 07:55:56;;;;;;;0.10;0.10;;;;;;;2.76;100.00;100213.94;4962387;28;20228;-83
2021/12/07 07:58:24;;;;;;;0.10;0.10;;;3.00;99.90;;;2.76;100.00;100198.28;4963318;28;20224;-83
2021/12/07 08:00:52;;;;;;;0.10;0.10;;;3.20;99.90;;;2.77;100.00;100205.28;4997129;28;20204;-82
2021/12/07 08:03:21;;;;;;;0.10;0.10;;;3.10;99.90;;;2.77;100.00;100205.28;4990606;28;20215;-82
2021/12/07 08:05:57;;;;;;;0.10;0.10;;;3.00;99.90;;;2.82;100.00;100206.31;4961806;28;20235;-81
2021/12/07 08:08:28;;;;;;;0.10;0.10;;;3.10;99.90;;;2.83;100.00;100204.59;4974077;28;20213;-80
2021/12/07 08:10:57;;;;;;;0.10;0.10;;;;;;;2.85;100.00;100216.88;4958270;28;20230;-82
2021/12/07 08:13:26;;;;;;;0.10;0.10;;;;;;;2.84;100.00;100211.59;4960326;28;20219;-83
2021/12/07 08:15:54;;;;;;;0.10;0.10;;;;;;;2.82;100.00;100214.16;4987663;28;20228;-83
2021/12/07 08:18:24;;;;;;;0.10;0.10;;;;;;;2.81;100.00;100217.59;4962499;28;20228;-82
2021/12/07 08:20:55;;;;;;;0.10;0.10;;;3.10;99.90;;;2.87;100.00;100225.66;4971885;28;20213;-82
2021/12/07 08:23:23;;;;;;;0.10;0.10;;;3.20;99.90;;;2.89;100.00;100224.00;4963014;28;20207;-82
2021/12/07 08:25:52;;;;;;;0.10;0.10;;;;;;;2.95;100.00;100228.56;4977954;28;20235;-82
2021/12/07 08:28:20;;;;;;;0.10;0.10;;;;;;;2.99;100.00;100229.56;4971152;28;20206;-81
2021/12/07 08:31:08;;;;;;;0.10;0.10;;;3.30;99.90;;;3.09;100.00;100247.34;4965380;28;20203;-82
2021/12/07 08:33:37;;;;;;;0.10;0.10;;;;;;;3.16;100.00;100246.72;4973258;28;20219;-83
2021/12/07 08:36:06;;;;;;;0.10;0.10;;;3.40;99.90;;;3.13;100.00;100237.03;4964302;28;20224;-81
2021/12/07 08:38:35;;;;;;;0.10;0.10;;;3.50;99.90;;;3.13;100.00;100234.44;4964092;28;20603;-82
2021/12/07 08:41:05;;;;;;;0.20;0.20;;;3.40;99.90;;;3.20;100.00;100253.81;4991652;28;20204;-81
2021/12/07 08:43:36;;;;;;;0.20;0.20;;;3.50;99.90;;;3.23;100.00;100251.31;4970688;28;20204;-82
2021/12/07 08:46:07;;;;;;;0.20;0.20;;;;;;;3.25;100.00;100254.00;4957302;28;20221;-82
2021/12/07 08:48:36;;;;;;;0.10;0.10;;;;;;;3.24;100.00;100244.38;4980250;28;20203;-82
2021/12/07 08:51:07;;;;;;;0.20;0.20;;;3.60;99.90;;;3.24;100.00;100246.97;4990746;28;20585;-82
2021/12/07 08:53:44;;;;;;;0.10;0.10;;;3.50;99.90;;;3.27;100.00;100244.47;4979143;28;20209;-83
2021/12/07 09:01:52;;;;;;;0.10;0.10;;;3.60;99.90;;;3.40;100.00;100262.38;4970013;28;20659;-82
2021/12/07 09:04:24;;;;;;;0.10;0.10;;;;;;;3.46;100.00;100259.97;4987498;28;20239;-82
2021/12/07 09:06:52;;;;;;;0.10;0.10;;;3.70;99.90;;;3.49;100.00;100262.69;4968598;28;20204;-81
2021/12/07 09:09:21;;;;;;;0.10;0.10;;;3.80;99.90;;;3.57;100.00;100276.03;4972905;28;20200;-81
2021/12/07 09:11:49;;;;;;;0.15;0.15;;;3.90;99.90;;;3.60;100.00;100281.34;4984819;28;20204;-81
2021/12/07 09:14:18;;;;;;;0.95;0.95;;;4.20;99.90;;;3.72;100.00;100281.78;4986200;28;20228;-82
2021/12/07 09:16:47;;;;;;;0.10;0.10;;;4.70;99.90;;;3.79;100.00;100284.63;4969856;28;20215;-83
2021/12/07 09:19:15;;;;;;;0.10;0.10;;;4.10;99.90;;;3.88;100.00;100299.75;4973004;28;20220;-83
2021/12/07 09:21:44;;;;;;;0.10;0.10;;;;;;;3.91;100.00;100292.03;4967421;28;20200;-82
2021/12/07 09:24:17;;;;;;;0.10;0.10;;;4.30;99.90;;;4.03;100.00;100302.03;4973092;28;20220;-82
2021/12/07 09:26:48;;;;;;;0.10;0.10;;;4.40;99.90;;;4.16;100.00;100309.44;4975345;28;20208;-83
2021/12/07 09:29:16;;;;;;;0.10;0.10;;;;;;;4.19;100.00;100293.84;4989684;28;20211;-82
2021/12/07 09:31:46;;;;;;;0.10;0.10;;;4.60;99.90;;;4.24;100.00;100297.47;4979869;28;20208;-82
2021/12/07 09:34:15;;;;;;;0.20;0.20;;;4.60;99.90;;;4.35;100.00;100292.59;4987134;28;20216;-82
2021/12/07 09:36:44;;;;;;;0.10;0.10;;;;;;;4.40;100.00;100293.63;4982962;28;20565;-83
2021/12/07 09:39:16;;;;;;;0.10;0.10;;;4.70;99.90;;;4.44;100.00;100301.63;4962233;28;20216;-82
2021/12/07 09:41:45;;;;;;;0.10;0.10;;;;;;;4.51;100.00;100292.22;4988261;28;20208;-83
2021/12/07 09:44:13;;;;;;;0.10;0.10;;;;;;;4.52;100.00;100270.44;4946853;28;20220;-82
2021/12/07 09:46:42;;;;;;;0.10;0.10;;;;;;;4.56;100.00;100274.94;4964512;28;20220;-82
2021/12/07 09:49:11;;;;;;;0.10;0.10;;;4.90;99.90;;;4.55;100.00;100261.78;4950600;28;20192;-84
2021/12/07 09:51:39;;;;;;;0.10;0.10;;;;;;;4.54;100.00;100242.56;4993447;28;20207;-81
2021/12/07 09:54:08;;;;;;;0.10;0.10;;;4.90;99.90;;;4.54;100.00;100245.19;4963097;28;20208;-83
2021/12/07 09:56:38;;;;;;;0.10;0.10;;;4.90;99.90;;;4.65;100.00;100245.50;5020515;28;20216;-83
2021/12/07 09:59:09;;;;;;;0.10;0.10;;;4.90;99.90;;;4.64;100.00;100228.00;4974249;28;20216;-83
2021/12/07 10:01:41;;;;;;;0.10;0.10;;;5.00;99.90;;;4.70;100.00;100229.09;4996696;28;20209;-82
2021/12/07 10:04:11;;;;;;;0.10;0.10;;;5.00;99.90;;;4.71;100.00;100222.09;5000896;28;20204;-83
2021/12/07 10:06:39;;;;;;;0.10;0.10;;;;;;;4.80;100.00;100231.13;4973642;28;20231;-84
2021/12/07 10:09:08;;;;;;;0.10;0.10;;;5.10;99.90;;;4.85;100.00;100223.38;4964531;28;20207;-84
2021/12/07 10:11:37;;;;;;;0.10;0.10;;;;;;;4.87;100.00;100216.47;4971888;28;20205;-84
2021/12/07 10:14:05;;;;;;;0.10;0.10;;;5.20;99.90;;;4.95;100.00;100195.72;4970934;28;20208;-82
2021/12/07 10:16:33;;;;;;;0.10;0.10;;;;;;;4.98;100.00;100190.56;4990549;28;20208;-82
2021/12/07 10:19:02;;;;;;;0.10;0.10;;;;;;;5.02;100.00;100177.56;4980846;28;20233;-84
2021/12/07 10:21:38;;;;;;;0.10;0.10;;;5.40;99.90;;;5.09;100.00;100181.25;4958325;28;20213;-82
2021/12/07 10:24:10;;;;;;;0.10;0.10;;;;;;;5.21;100.00;100189.47;4978891;28;20196;-84
2021/12/07 10:26:43;;;;;;;0.10;0.10;;;5.50;99.90;;;5.23;100.00;100182.53;4958132;28;20208;-83
2021/12/07 10:29:11;;;;;;;0.10;0.10;;;;;;;5.18;100.00;100171.00;5000008;28;20204;-83
2021/12/07 10:31:45;;;;;;;0.10;0.10;;;5.50;99.90;;;5.22;100.00;100166.78;4981127;28;20216;-83
2021/12/07 10:34:21;;;;;;;0.10;0.10;;;5.50;99.90;;;5.19;100.00;100159.69;4955900;28;20219;-83
2021/12/07 10:36:55;;;;;;;0.10;0.10;;;5.50;99.90;;;5.10;100.00;100141.09;4963870;28;20215;-83
2021/12/07 10:39:32;;;;;;;0.10;0.10;;;5.50;99.90;;;5.15;100.00;100152.59;4959004;28;20224;-84
2021/12/07 10:42:08;;;;;;;0.20;0.20;;;5.40;99.90;;;5.03;100.00;100142.66;4974619;28;20197;-84
2021/12/07 10:45:15;;;;;;;0.10;0.10;;;5.30;99.90;;;4.88;100.00;100121.28;4974056;28;20234;-83
2021/12/07 10:47:43;;;;;;;0.10;0.10;;;;;;;4.80;100.00;100108.00;4989763;28;20205;-82
2021/12/07 10:50:15;;;;;;;0.10;0.10;;;;;;;4.80;100.00;100113.22;4959279;28;20824;-83
2021/12/07 10:52:45;;;;;;;0.10;0.10;;;5.10;99.90;;;4.85;100.00;100121.22;4966137;28;20212;-83
2021/12/07 10:55:23;;;;;;;0.10;0.10;;;5.20;99.90;;;5.02;100.00;100140.00;4983507;28;20219;-83
2021/12/07 10:58:01;;;;;;;0.10;0.10;;;5.40;99.90;;;5.18;100.00;100163.16;4998527;28;20207;-83
2021/12/07 11:00:40;;;;;;;0.20;0.20;;;5.50;99.90;;;5.29;100.00;100177.44;4966815;28;20199;-84
2021/12/07 11:03:11;;;;;;;0.10;0.10;;;;;;;5.26;100.00;100156.41;4982834;28;20618;-83
2021/12/07 11:05:44;;;;;;;0.10;0.10;;;5.60;99.90;;;5.33;100.00;100166.19;4963636;28;20242;-83
2021/12/07 11:08:14;;;;;;;0.17;0.17;;;5.60;99.90;;;5.32;100.00;100147.81;4982662;28;20204;-83
2021/12/07 11:10:47;;;;;;;0.10;0.10;;;5.50;99.90;;;5.16;100.00;100133.38;4971154;28;20211;-83
2021/12/07 11:13:36;;;;;;;0.10;0.10;;;5.40;99.90;;;5.08;100.00;100125.31;4978992;28;20219;-83
2021/12/07 11:16:13;;;;;;;0.10;0.10;;;5.30;99.90;;;5.03;100.00;100123.44;4969512;28;20251;-84
2021/12/07 11:18:49;;;;;;;0.20;0.20;;;5.20;99.90;;;4.97;100.00;100113.69;4956858;28;20234;-83
2021/12/07 11:21:20;;;;;;;0.20;0.20;;;5.30;99.90;;;5.01;100.00;100114.66;4996048;28;20191;-84
2021/12/07 11:23:55;;;;;;;0.10;0.10;;;5.30;99.90;;;5.12;100.00;100126.28;4978543;28;20217;-84
2021/12/07 11:31:50;;;;;;;0.10;0.10;;;;;;;5.35;100.00;100114.69;4981801;28;20207;-84
2021/12/07 11:34:22;;;;;;;0.10;0.10;;;5.70;99.90;;;5.33;100.00;100103.28;4986480;28;20236;-84
2021/12/07 11:36:52;;;;;;;0.25;0.25;;;;;;;5.33;100.00;100094.53;4970897;28;20223;-83
2021/12/07 11:39:36;;;;;;;0.10;0.10;;;5.60;99.90;;;5.31;100.00;100081.38;4948682;28;20227;-83
2021/12/07 11:42:10;;;;;;;0.10;0.10;;;5.70;99.90;;;5.31;100.00;100083.09;4989381;28;20200;-84
2021/12/07 11:44:52;;;;;;;0.10;0.10;;;5.60;99.90;;;5.30;100.00;100092.72;4983758;28;20231;-84
2021/12/07 11:47:26;;;;;;;0.10;0.10;;;5.80;99.90;;;5.33;100.00;100078.78;4998403;28;20211;-84
2021/12/07 11:49:56;;;;;;;0.10;0.10;;;5.70;99.90;;;5.39;100.00;100089.41;4953797;28;20223;-84
2021/12/07 11:52:24;;;;;;;0.20;0.20;;;5.70;99.90;;;5.43;100.00;100104.38;4959733;28;20212;-84
2021/12/07 11:54:53;;;;;;;0.10;0.10;;;;;;;5.52;100.00;100101.09;4988689;28;20239;-84
2021/12/07 11:57:21;;;;;;;0.10;0.10;;;;;;;5.55;100.00;100077.56;4953479;28;20212;-83
2021/12/07 11:59:50;;;;;;;0.10;0.10;;;5.90;99.90;;;5.63;100.00;100084.75;5006364;28;20216;-84
2021/12/07 12:02:18;;;;;;;0.10;0.10;;;;;;;5.67;100.00;100077.84;4950159;28;20203;-83
2021/12/07 12:04:47;;;;;;;0.10;0.10;;;;;;;5.74;100.00;100074.50;4998700;28;20236;-84
2021/12/07 12:07:19;;;;;;;0.10;0.10;;;6.00;99.90;;;5.71;100.00;100045.56;4941679;28;20201;-84
2021/12/07 12:09:50;;;;;;;0.10;0.10;;;;;;;5.71;100.00;100048.19;5005143;28;20208;-83
2021/12/07 12:12:32;;;;;;;0.20;0.20;;;6.10;99.90;;;5.70;100.00;100055.19;4967803;28;20201;-85
2021/12/07 12:15:55;;;;;;;0.10;0.10;;;5.90;99.90;;;5.88;100.00;100080.06;4997815;28;20224;-84
2021/12/07 12:18:58;;;;;;;0.10;0.10;;;6.20;99.90;;;6.03;100.00;100080.44;4988136;28;20208;-84
2021/12/07 12:21:47;;;;;;;0.10;0.10;;;6.40;99.90;;;6.15;100.00;100090.31;4966958;28;20218;-83
2021/12/07 12:24:48;;;;;;;0.10;0.10;;;6.60;99.90;;;6.42;100.00;100104.88;5014760;28;20239;-84
2021/12/07 12:27:18;;;;;;;0.10;0.10;;;;;;;6.56;100.00;100073.66;4979489;28;20200;-85
2021/12/07 12:29:50;;;;;;;0.10;0.10;;;6.90;99.90;;;6.59;100.00;100065.84;4990356;28;20243;-84
2021/12/07 12:32:33;;;;;;;0.10;0.10;;;6.90;99.90;;;6.51;100.00;100056.06;4956576;28;20203;-84
2021/12/07 12:35:04;;;;;;;0.10;0.10;;;;;;;6.43;100.00;100038.38;4973109;28;20228;-83
2021/12/07 12:37:33;;;;;;;0.10;0.10;;;6.70;99.90;;;6.39;100.00;100028.66;4973629;28;20281;-84
2021/12/07 12:40:06;;;;;;;0.10;0.10;;;6.60;99.90;;;6.40;100.00;100040.06;4968477;28;20216;-84
2021/12/07 12:42:46;;;;;;;0.10;0.10;;;6.70;99.90;;;6.49;100.00;100049.84;4950777;28;20201;-84